Time;durP1;ratioP1;P1;durP2;ratioP2;P2;SDS_P1;SDS_P2;PMS_P1;PMS_P2;Temp;Humidity;BMP_temperature;BMP_pressure;BME280_temperature;BME280_humidity;BME280_pressure;Samples;Min_cycle;Max_cycle;Signal;HPM_P1;HPM_P2
2023/08/23 00:00:11;;;;;;;11.10;7.97;;;21.80;99.90;;;;;;5016847;28;20042;-43
2023/08/23 00:02:40;;;;;;;9.77;7.60;;;21.90;99.90;;;;;;5016770;28;20053;-42
2023/08/23 00:05:08;;;;;;;8.60;7.80;;;21.80;99.90;;;;;;5014839;28;20050;-42
2023/08/23 00:07:35;;;;;;;12.43;8.85;;;21.80;99.90;;;;;;5010721;28;20045;-45
2023/08/23 00:10:03;;;;;;;9.73;8.13;;;21.90;99.90;;;;;;5011381;28;20048;-45
2023/08/23 00:12:30;;;;;;;13.65;8.02;;;21.80;99.90;;;;;;5018322;28;20530;-43
2023/08/23 00:14:58;;;;;;;10.27;8.13;;;21.80;99.90;;;;;;5012116;28;20050;-42
2023/08/23 00:17:25;;;;;;;10.35;8.32;;;21.70;99.90;;;;;;5017457;28;20076;-43
2023/08/23 00:19:54;;;;;;;9.90;8.55;;;21.70;99.90;;;;;;5010139;28;20110;-44
2023/08/23 00:22:21;;;;;;;14.05;8.25;;;21.70;99.90;;;;;;5011824;28;20422;-45
2023/08/23 00:24:49;;;;;;;14.65;8.80;;;21.60;99.90;;;;;;5014405;28;20450;-42
2023/08/23 00:27:16;;;;;;;11.68;8.43;;;21.60;99.90;;;;;;5013917;28;20046;-45
2023/08/23 00:29:43;;;;;;;10.32;8.48;;;21.60;99.90;;;;;;5009871;28;20038;-44
2023/08/23 00:32:11;;;;;;;9.63;8.30;;;21.50;99.90;;;;;;5011845;28;20477;-45
2023/08/23 00:34:38;;;;;;;10.27;7.82;;;21.50;99.90;;;;;;5016940;28;20057;-44
2023/08/23 00:37:07;;;;;;;9.50;8.30;;;21.50;99.90;;;;;;5013410;28;20121;-44
2023/08/23 00:39:34;;;;;;;9.38;7.25;;;21.40;99.90;;;;;;5019844;28;20594;-44
2023/08/23 00:42:02;;;;;;;17.60;8.02;;;21.40;99.90;;;;;;5013423;28;20057;-45
2023/08/23 00:44:29;;;;;;;11.05;7.55;;;21.50;99.90;;;;;;5011823;28;20045;-44
2023/08/23 00:46:57;;;;;;;10.02;7.80;;;21.40;99.90;;;;;;5012980;28;20061;-43
2023/08/23 00:49:24;;;;;;;8.48;7.25;;;21.40;99.90;;;;;;5009848;28;20042;-41
2023/08/23 00:51:53;;;;;;;9.52;7.40;;;21.50;99.90;;;;;;5014259;28;20125;-42
2023/08/23 00:54:21;;;;;;;10.40;8.27;;;21.50;99.90;;;;;;5008653;28;20054;-43
2023/08/23 00:56:50;;;;;;;12.23;7.38;;;21.50;99.90;;;;;;5004542;28;20561;-44
2023/08/23 00:59:18;;;;;;;10.55;7.63;;;21.50;99.90;;;;;;4999358;28;20248;-42
2023/08/23 01:01:45;;;;;;;9.65;7.43;;;21.50;99.90;;;;;;5007089;28;20038;-43
2023/08/23 01:04:12;;;;;;;9.10;8.13;;;21.40;99.90;;;;;;5008606;28;20605;-43
2023/08/23 01:06:59;;;;;;;8.68;7.78;;;21.30;99.90;;;;;;5006479;28;20487;-43
2023/08/23 01:09:41;;;;;;;9.45;7.72;;;21.40;99.90;;;;;;5008730;28;20054;-43
2023/08/23 01:12:37;;;;;;;10.88;8.10;;;21.30;99.90;;;;;;5011263;28;20442;-43
2023/08/23 01:15:09;;;;;;;9.25;8.30;;;21.30;99.90;;;;;;5008652;28;20053;-44
2023/08/23 01:17:41;;;;;;;13.75;8.48;;;21.30;99.90;;;;;;5008658;28;20482;-42
2023/08/23 01:20:13;;;;;;;10.05;8.48;;;21.30;99.90;;;;;;5007580;28;20511;-45
2023/08/23 01:23:01;;;;;;;11.23;8.45;;;21.20;99.90;;;;;;5009002;28;20040;-43
2023/08/23 01:25:28;;;;;;;9.32;8.40;;;21.20;99.90;;;;;;5007309;28;20046;-47
2023/08/23 01:27:56;;;;;;;14.73;8.50;;;21.10;99.90;;;;;;5004291;28;20135;-41
2023/08/23 01:30:26;;;;;;;9.05;7.47;;;21.10;99.90;;;;;;5006527;28;20479;-42
2023/08/23 01:33:07;;;;;;;8.70;7.80;;;21.10;99.90;;;;;;5008514;28;20064;-43
2023/08/23 01:35:45;;;;;;;9.80;8.05;;;21.10;99.90;;;;;;5008277;28;20046;-46
2023/08/23 01:38:16;;;;;;;9.60;8.00;;;21.10;99.90;;;;;;5007342;28;20129;-44
2023/08/23 01:40:44;;;;;;;9.85;7.50;;;21.10;99.90;;;;;;5007050;28;20057;-43
2023/08/23 01:43:11;;;;;;;9.02;7.88;;;21.00;99.90;;;;;;5008444;28;20411;-44
2023/08/23 01:45:39;;;;;;;13.88;8.13;;;21.00;99.90;;;;;;5006389;28;20046;-45
2023/08/23 01:48:06;;;;;;;10.55;7.05;;;21.00;99.90;;;;;;5007722;28;20527;-43
2023/08/23 01:50:33;;;;;;;9.73;8.30;;;20.90;99.90;;;;;;5008353;28;20038;-44
2023/08/23 01:53:02;;;;;;;10.52;8.10;;;20.90;99.90;;;;;;5006753;28;20133;-42
2023/08/23 01:55:29;;;;;;;9.52;7.82;;;20.90;99.90;;;;;;5006600;28;20262;-45
2023/08/23 01:57:57;;;;;;;14.05;9.23;;;20.90;99.90;;;;;;5007326;28;20057;-42
2023/08/23 02:00:25;;;;;;;10.38;8.90;;;20.90;99.90;;;;;;5005779;28;20455;-43
2023/08/23 02:02:52;;;;;;;13.43;9.05;;;20.90;99.90;;;;;;5005678;28;20042;-42
2023/08/23 02:05:20;;;;;;;12.68;9.18;;;20.80;99.90;;;;;;5008182;28;20470;-44
2023/08/23 02:07:47;;;;;;;10.98;8.95;;;20.80;99.90;;;;;;5007301;28;20498;-44
2023/08/23 02:10:15;;;;;;;14.65;9.35;;;20.80;99.90;;;;;;5005963;28;20049;-46
2023/08/23 02:12:42;;;;;;;10.77;8.60;;;20.80;99.90;;;;;;5007287;28;20423;-43
2023/08/23 02:15:10;;;;;;;11.30;8.90;;;20.70;99.90;;;;;;5008052;28;20057;-44
2023/08/23 02:17:37;;;;;;;11.27;9.15;;;20.80;99.90;;;;;;5008131;28;20514;-39
2023/08/23 02:20:05;;;;;;;11.63;9.30;;;20.80;99.90;;;;;;5008784;28;20396;-42
2023/08/23 02:22:33;;;;;;;10.63;8.85;;;20.70;99.90;;;;;;5005562;28;20823;-45
2023/08/23 02:25:00;;;;;;;13.13;9.52;;;20.70;99.90;;;;;;5005435;28;20507;-44
2023/08/23 02:27:28;;;;;;;13.45;9.75;;;20.70;99.90;;;;;;5006650;28;20053;-45
2023/08/23 02:29:55;;;;;;;11.27;9.38;;;20.70;99.90;;;;;;5005851;28;20081;-45
2023/08/23 02:32:23;;;;;;;11.57;8.88;;;20.60;99.90;;;;;;5002743;28;20107;-45
2023/08/23 02:34:50;;;;;;;17.42;10.00;;;20.60;99.90;;;;;;5006046;28;20552;-45
2023/08/23 02:37:18;;;;;;;12.93;9.48;;;20.60;99.90;;;;;;5006407;28;20057;-45
2023/08/23 02:39:45;;;;;;;14.35;10.30;;;20.60;99.90;;;;;;5008026;28;20050;-42
2023/08/23 02:42:12;;;;;;;12.45;10.07;;;20.50;99.90;;;;;;5006737;28;20074;-44
2023/08/23 02:44:40;;;;;;;10.63;9.48;;;20.50;99.90;;;;;;5011698;28;20564;-42
2023/08/23 02:47:07;;;;;;;10.90;9.80;;;20.50;99.90;;;;;;5006560;28;20065;-45
2023/08/23 02:49:35;;;;;;;12.02;9.52;;;20.40;99.90;;;;;;5005063;28;20589;-43
2023/08/23 02:52:03;;;;;;;17.05;10.68;;;20.40;99.90;;;;;;5008002;28;20414;-43
2023/08/23 02:54:31;;;;;;;12.32;9.38;;;20.40;99.90;;;;;;5005770;28;20107;-44
2023/08/23 02:56:58;;;;;;;18.13;10.65;;;20.40;99.90;;;;;;5005856;28;20144;-45
2023/08/23 02:59:27;;;;;;;15.40;9.98;;;20.40;99.90;;;;;;5007792;28;20121;-42
2023/08/23 03:01:54;;;;;;;11.50;9.32;;;20.30;99.90;;;;;;5003096;28;20507;-44
2023/08/23 03:04:21;;;;;;;13.00;9.23;;;20.30;99.90;;;;;;5007946;28;20129;-44
2023/08/23 03:06:50;;;;;;;12.48;9.80;;;20.30;99.90;;;;;;5004093;28;20449;-44
2023/08/23 03:09:17;;;;;;;17.15;10.15;;;20.30;99.90;;;;;;5003998;28;20163;-45
2023/08/23 03:11:44;;;;;;;11.35;9.38;;;20.20;99.90;;;;;;5006017;28;20123;-45
2023/08/23 03:14:12;;;;;;;11.52;9.15;;;20.20;99.90;;;;;;5007152;28;21181;-45
2023/08/23 03:16:39;;;;;;;11.85;9.45;;;20.10;99.90;;;;;;5013007;28;20505;-44
2023/08/23 03:19:08;;;;;;;14.40;10.00;;;20.10;99.90;;;;;;5012476;28;20124;-42
2023/08/23 03:21:35;;;;;;;11.93;8.98;;;20.10;99.90;;;;;;5010925;28;20062;-45
2023/08/23 03:24:03;;;;;;;14.20;10.20;;;20.10;99.90;;;;;;5010560;28;20049;-44
2023/08/23 03:26:30;;;;;;;15.18;9.32;;;20.00;99.90;;;;;;5008224;28;20499;-44
2023/08/23 03:28:58;;;;;;;12.77;10.10;;;20.00;99.90;;;;;;5008884;28;20334;-44
2023/08/23 03:31:26;;;;;;;10.98;8.82;;;20.00;99.90;;;;;;5009950;28;20044;-45
2023/08/23 03:33:54;;;;;;;14.68;10.07;;;19.90;99.90;;;;;;5005261;28;20140;-43
2023/08/23 03:36:22;;;;;;;14.35;9.90;;;19.90;99.90;;;;;;5011994;28;20041;-43
2023/08/23 03:38:49;;;;;;;13.00;9.10;;;19.90;99.90;;;;;;5008322;28;20410;-43
2023/08/23 03:41:17;;;;;;;18.15;10.73;;;19.80;99.90;;;;;;5006411;28;20053;-44
2023/08/23 03:43:45;;;;;;;14.98;10.05;;;19.80;99.90;;;;;;5006990;28;20042;-44
2023/08/23 03:46:13;;;;;;;12.50;9.48;;;19.70;99.90;;;;;;5007017;28;20081;-44
2023/08/23 03:48:41;;;;;;;12.50;10.25;;;19.70;99.90;;;;;;5008276;28;20041;-42
2023/08/23 03:51:08;;;;;;;13.10;9.60;;;19.70;99.90;;;;;;5010404;28;20115;-45
2023/08/23 03:53:35;;;;;;;15.93;10.18;;;19.70;99.90;;;;;;5010186;28;20052;-45
2023/08/23 03:56:03;;;;;;;13.52;9.43;;;19.70;99.90;;;;;;5011852;28;20108;-42
2023/08/23 03:58:31;;;;;;;12.27;10.25;;;19.70;99.90;;;;;;5007736;28;20473;-43
2023/08/23 04:00:58;;;;;;;12.80;9.70;;;19.70;99.90;;;;;;5003106;28;20534;-46
2023/08/23 04:03:26;;;;;;;15.48;9.73;;;19.70;99.90;;;;;;5009091;28;20038;-44
2023/08/23 04:05:53;;;;;;;13.40;10.50;;;19.70;99.90;;;;;;5011060;28;20042;-45
2023/08/23 04:08:21;;;;;;;14.18;10.40;;;19.70;99.90;;;;;;5004197;28;20049;-44
2023/08/23 04:10:51;;;;;;;12.38;9.68;;;19.70;99.90;;;;;;5008987;28;20057;-44
2023/08/23 04:13:18;;;;;;;14.63;10.23;;;19.70;99.90;;;;;;5005567;28;20111;-44
2023/08/23 04:15:46;;;;;;;11.90;10.25;;;19.70;99.90;;;;;;5008124;28;20093;-43
2023/08/23 04:18:14;;;;;;;14.40;10.95;;;19.60;99.90;;;;;;5006953;28;20229;-44
2023/08/23 04:20:42;;;;;;;12.82;10.70;;;19.70;99.90;;;;;;5007317;28;20100;-45
2023/08/23 04:23:09;;;;;;;15.77;11.48;;;19.60;99.90;;;;;;5005039;28;20110;-43
2023/08/23 04:25:37;;;;;;;15.23;10.98;;;19.70;99.90;;;;;;5008469;28;20061;-44
2023/08/23 04:28:05;;;;;;;13.25;11.02;;;19.60;99.90;;;;;;5006932;28;20054;-43
2023/08/23 04:30:32;;;;;;;13.90;10.43;;;19.70;99.90;;;;;;5007821;28;20176;-42
2023/08/23 04:33:00;;;;;;;12.52;10.10;;;19.70;99.90;;;;;;5011981;28;20065;-43
2023/08/23 04:35:28;;;;;;;15.32;10.27;;;19.70;99.90;;;;;;5009380;28;20145;-42
2023/08/23 04:37:55;;;;;;;12.13;9.90;;;19.70;99.90;;;;;;5005996;28;20076;-43
2023/08/23 04:40:23;;;;;;;13.27;10.10;;;19.70;99.90;;;;;;5006014;28;20426;-45
2023/08/23 04:42:50;;;;;;;10.98;9.60;;;19.70;99.90;;;;;;5004765;28;20053;-44
2023/08/23 04:45:18;;;;;;;10.05;8.88;;;19.80;99.90;;;;;;5004707;28;20050;-42
2023/08/23 04:47:47;;;;;;;11.35;9.98;;;19.80;99.90;;;;;;5004461;28;20046;-46
2023/08/23 04:50:15;;;;;;;13.48;10.02;;;19.90;99.90;;;;;;5006640;28;20061;-46
2023/08/23 04:52:42;;;;;;;12.85;8.75;;;19.90;99.90;;;;;;5006243;28;20092;-44
2023/08/23 04:55:13;;;;;;;16.23;10.37;;;19.90;99.90;;;;;;5008101;28;20041;-45
2023/08/23 04:57:41;;;;;;;11.23;9.27;;;20.00;99.90;;;;;;5007988;28;20547;-45
2023/08/23 05:00:09;;;;;;;11.00;9.63;;;20.00;99.90;;;;;;4990192;28;20426;-44
2023/08/23 05:02:37;;;;;;;14.25;9.82;;;20.10;99.90;;;;;;4998838;28;20042;-45
2023/08/23 05:05:06;;;;;;;10.43;8.60;;;20.10;99.90;;;;;;5004423;28;20050;-43
2023/08/23 05:07:37;;;;;;;14.02;10.35;;;20.10;99.90;;;;;;5008458;28;20517;-45
2023/08/23 05:10:06;;;;;;;15.07;9.90;;;20.20;99.90;;;;;;5005915;28;20303;-45
2023/08/23 05:12:34;;;;;;;15.82;10.65;;;20.20;99.90;;;;;;5007883;28;20129;-42
2023/08/23 05:15:03;;;;;;;14.60;10.00;;;20.20;99.90;;;;;;5005376;28;20104;-44
2023/08/23 05:17:30;;;;;;;14.55;10.35;;;20.20;99.90;;;;;;5007176;28;20688;-44
2023/08/23 05:19:57;;;;;;;10.80;9.70;;;20.30;99.90;;;;;;5008633;28;20081;-44
2023/08/23 05:22:25;;;;;;;12.27;10.00;;;20.30;99.90;;;;;;5002379;28;20039;-44
2023/08/23 05:24:52;;;;;;;13.20;9.77;;;20.40;99.90;;;;;;5005441;28;20041;-43
2023/08/23 05:27:19;;;;;;;15.52;11.43;;;20.40;99.90;;;;;;5010090;28;20041;-44
2023/08/23 05:29:47;;;;;;;12.57;10.25;;;20.40;99.90;;;;;;5008494;28;20045;-44
2023/08/23 05:32:14;;;;;;;11.68;10.05;;;20.40;99.90;;;;;;5007400;28;20046;-47
2023/08/23 05:34:42;;;;;;;12.80;11.05;;;20.50;99.90;;;;;;5006940;28;20064;-43
2023/08/23 05:37:09;;;;;;;16.60;10.57;;;20.50;99.90;;;;;;5007782;28;20146;-44
2023/08/23 05:39:37;;;;;;;11.70;9.93;;;20.50;99.90;;;;;;5007196;28;20050;-45
2023/08/23 05:42:06;;;;;;;14.45;11.15;;;20.50;99.90;;;;;;5005522;28;20042;-44
2023/08/23 05:44:34;;;;;;;12.18;10.95;;;20.60;99.90;;;;;;5008846;28;20663;-44
2023/08/23 05:47:02;;;;;;;13.55;10.63;;;20.60;99.90;;;;;;5006282;28;20048;-44
2023/08/23 05:49:29;;;;;;;15.52;10.32;;;20.60;99.90;;;;;;5007941;28;20382;-44
2023/08/23 05:51:56;;;;;;;17.00;11.05;;;20.70;99.90;;;;;;5008201;28;20046;-44
2023/08/23 05:54:24;;;;;;;16.58;11.43;;;20.70;99.90;;;;;;5008712;28;20092;-44
2023/08/23 05:56:51;;;;;;;14.90;10.70;;;20.70;99.90;;;;;;5007150;28;20526;-44
2023/08/23 05:59:18;;;;;;;14.27;12.13;;;20.60;99.90;;;;;;4997913;28;20407;-44
2023/08/23 06:01:46;;;;;;;13.20;10.18;;;20.70;99.90;;;;;;5006508;28;20073;-44
2023/08/23 06:04:13;;;;;;;24.40;10.60;;;20.80;99.90;;;;;;5004490;28;20058;-45
2023/08/23 06:06:40;;;;;;;11.90;9.90;;;20.90;99.90;;;;;;5006456;28;20519;-45
2023/08/23 06:09:08;;;;;;;13.27;10.60;;;20.90;99.90;;;;;;5006975;28;20054;-44
2023/08/23 06:11:35;;;;;;;15.80;11.65;;;20.90;99.90;;;;;;5006797;28;20042;-43
2023/08/23 06:14:19;;;;;;;15.80;10.32;;;20.90;99.90;;;;;;4999752;28;20137;-43
2023/08/23 06:16:47;;;;;;;11.00;8.85;;;20.90;99.90;;;;;;5007285;28;20101;-45
2023/08/23 06:19:14;;;;;;;12.20;9.13;;;21.00;99.90;;;;;;5007885;28;20406;-46
2023/08/23 06:21:42;;;;;;;14.63;9.98;;;21.10;99.90;;;;;;5008453;28;20611;-44
2023/08/23 06:24:10;;;;;;;13.93;10.60;;;21.20;99.90;;;;;;5007731;28;20050;-44
2023/08/23 06:26:38;;;;;;;13.70;9.68;;;21.30;99.90;;;;;;5007891;28;20045;-44
2023/08/23 06:29:05;;;;;;;12.73;10.45;;;21.40;99.90;;;;;;5012462;28;20038;-43
2023/08/23 06:31:33;;;;;;;12.15;10.38;;;21.40;99.90;;;;;;5007624;28;20042;-44
2023/08/23 06:34:00;;;;;;;18.55;10.27;;;21.50;99.90;;;;;;5013265;28;20077;-45
2023/08/23 06:36:28;;;;;;;11.48;9.02;;;21.60;99.90;;;;;;5010914;28;20053;-45
2023/08/23 06:38:55;;;;;;;14.98;9.77;;;21.70;99.90;;;;;;5000266;28;20152;-44
2023/08/23 06:41:22;;;;;;;15.38;10.00;;;21.70;99.90;;;;;;5000297;28;20080;-45
2023/08/23 06:43:58;;;;;;;12.35;9.80;;;21.60;99.90;;;;;;5001682;28;20034;-43
2023/08/23 06:46:26;;;;;;;14.02;9.40;;;21.70;99.90;;;;;;5003129;28;20383;-43
2023/08/23 06:48:54;;;;;;;16.55;10.93;;;21.90;99.90;;;;;;4998685;28;20073;-43
2023/08/23 06:51:23;;;;;;;13.63;11.50;;;22.00;99.90;;;;;;4996176;28;20046;-45
2023/08/23 06:53:51;;;;;;;12.48;10.63;;;22.00;99.90;;;;;;4997676;28;20057;-44
2023/08/23 06:56:18;;;;;;;12.43;11.10;;;21.90;99.90;;;;;;5002933;28;20046;-44
2023/08/23 06:58:46;;;;;;;18.15;11.40;;;21.90;99.90;;;;;;5000025;28;20050;-43
2023/08/23 07:01:15;;;;;;;24.90;16.67;;;22.00;99.90;;;;;;5003906;28;20892;-44
2023/08/23 07:03:44;;;;;;;15.00;11.15;;;22.10;99.90;;;;;;4997317;28;20606;-42
2023/08/23 07:06:13;;;;;;;13.88;10.20;;;22.10;99.90;;;;;;4998077;28;20062;-45
2023/08/23 07:08:42;;;;;;;14.57;10.77;;;22.00;99.90;;;;;;5000177;28;20108;-46
2023/08/23 07:11:09;;;;;;;17.52;10.63;;;22.20;99.90;;;;;;5009992;28;20050;-45
2023/08/23 07:13:40;;;;;;;14.85;10.93;;;22.20;99.90;;;;;;5012641;28;20061;-43
2023/08/23 07:16:07;;;;;;;17.58;9.90;;;22.30;99.90;;;;;;5007233;28;20529;-44
2023/08/23 07:18:35;;;;;;;16.45;10.30;;;22.30;99.90;;;;;;5009719;28;20129;-43
2023/08/23 07:21:03;;;;;;;16.10;10.48;;;22.40;99.90;;;;;;5009221;28;20140;-46
2023/08/23 07:23:31;;;;;;;20.73;11.10;;;22.50;99.90;;;;;;5008729;28;20053;-45
2023/08/23 07:26:02;;;;;;;18.90;11.57;;;22.50;99.90;;;;;;5006575;28;20557;-43
2023/08/23 07:28:29;;;;;;;16.10;11.43;;;22.60;99.90;;;;;;5007779;28;20545;-45
2023/08/23 07:30:57;;;;;;;13.75;10.75;;;22.70;99.90;;;;;;5007887;28;20064;-46
2023/08/23 07:33:25;;;;;;;15.95;10.95;;;22.70;99.90;;;;;;5005750;28;20528;-47
2023/08/23 07:36:01;;;;;;;14.85;10.55;;;22.80;99.90;;;;;;5006522;28;20123;-45
2023/08/23 07:38:28;;;;;;;12.73;10.10;;;22.90;99.90;;;;;;5001717;28;20422;-47
2023/08/23 07:41:00;;;;;;;14.05;11.27;;;22.90;99.90;;;;;;5006705;28;20057;-47
2023/08/23 07:43:27;;;;;;;;;;;23.20;99.90;;;;;;5003760;28;20184;-47
2023/08/23 07:45:56;;;;;;;12.10;9.55;;;23.40;99.90;;;;;;5005827;28;20012;-45
2023/08/23 07:48:24;;;;;;;15.90;10.15;;;23.60;99.90;;;;;;5002543;28;20061;-47
2023/08/23 07:50:53;;;;;;;17.15;9.75;;;23.70;99.90;;;;;;5007033;28;20049;-46
2023/08/23 07:53:20;;;;;;;12.65;9.13;;;23.90;99.90;;;;;;5006406;28;20050;-44
2023/08/23 07:55:47;;;;;;;19.92;9.15;;;23.90;99.90;;;;;;5006496;28;20470;-45
2023/08/23 07:58:15;;;;;;;30.23;8.82;;;24.10;99.90;;;;;;5007065;28;20045;-46
2023/08/23 08:00:42;;;;;;;16.85;9.48;;;24.30;99.90;;;;;;5002230;28;20084;-47
2023/08/23 08:03:10;;;;;;;19.92;8.50;;;24.40;99.90;;;;;;5005575;28;20061;-46
2023/08/23 08:05:38;;;;;;;24.08;9.25;;;24.50;99.90;;;;;;5011884;28;20042;-46
2023/08/23 08:08:06;;;;;;;12.82;8.82;;;24.60;99.90;;;;;;5008695;28;20050;-49
2023/08/23 08:10:36;;;;;;;15.15;8.73;;;24.40;99.90;;;;;;5006998;28;20048;-45
2023/08/23 08:13:05;;;;;;;10.57;8.13;;;24.40;99.90;;;;;;5009584;28;20477;-46
2023/08/23 08:15:32;;;;;;;16.40;8.90;;;24.60;99.90;;;;;;5010083;28;20054;-48
2023/08/23 08:17:59;;;;;;;11.55;8.50;;;24.70;99.90;;;;;;5005196;28;20089;-50
2023/08/23 08:20:27;;;;;;;17.02;9.35;;;24.90;99.90;;;;;;5007549;28;20073;-48
2023/08/23 08:22:54;;;;;;;12.05;8.95;;;24.80;99.90;;;;;;5009745;28;20462;-44
2023/08/23 08:25:22;;;;;;;12.02;9.43;;;24.70;99.90;;;;;;5006532;28;20077;-48
2023/08/23 08:27:50;;;;;;;13.05;9.02;;;24.70;99.90;;;;;;5006349;28;20042;-46
2023/08/23 08:30:19;;;;;;;13.65;9.10;;;24.70;99.90;;;;;;5008913;28;20054;-46
2023/08/23 08:32:46;;;;;;;12.60;8.93;;;24.70;99.90;;;;;;5003964;28;20038;-49
2023/08/23 08:35:13;;;;;;;15.68;9.52;;;24.70;99.90;;;;;;5001366;28;20400;-45
2023/08/23 08:37:41;;;;;;;10.15;7.72;;;24.70;99.90;;;;;;4998615;28;20073;-45
2023/08/23 08:40:09;;;;;;;9.25;8.10;;;24.80;99.90;;;;;;5000205;28;20068;-49
2023/08/23 08:42:36;;;;;;;15.07;8.80;;;24.90;99.90;;;;;;5000052;28;21014;-47
2023/08/23 08:45:06;;;;;;;12.43;9.73;;;25.10;99.90;;;;;;5008042;28;20411;-46
2023/08/23 08:47:33;;;;;;;14.15;8.75;;;25.10;99.90;;;;;;5007003;28;20046;-48
2023/08/23 08:50:01;;;;;;;12.73;8.93;;;25.10;99.90;;;;;;5007106;28;20103;-44
2023/08/23 08:52:29;;;;;;;14.43;8.57;;;25.20;99.90;;;;;;5008493;28;20037;-48
2023/08/23 08:54:59;;;;;;;13.30;9.10;;;25.10;99.90;;;;;;5007130;28;20061;-48
2023/08/23 08:57:28;;;;;;;12.75;8.20;;;25.20;99.90;;;;;;5005541;28;20053;-47
2023/08/23 08:59:56;;;;;;;10.55;8.20;;;25.20;99.90;;;;;;5005835;28;20125;-46
2023/08/23 09:02:27;;;;;;;11.27;7.63;;;25.30;99.90;;;;;;5006183;28;20056;-50
2023/08/23 09:04:56;;;;;;;11.90;8.57;;;25.40;99.90;;;;;;5007403;28;20133;-44
2023/08/23 09:07:23;;;;;;;9.00;7.55;;;25.30;99.90;;;;;;5001980;28;20487;-47
2023/08/23 09:09:51;;;;;;;12.25;7.47;;;25.30;99.90;;;;;;4999949;28;20307;-45
2023/08/23 09:12:19;;;;;;;10.75;8.82;;;25.30;99.90;;;;;;5010469;28;20088;-42
2023/08/23 09:14:49;;;;;;;9.23;7.90;;;25.50;99.90;;;;;;5005635;28;20049;-46
2023/08/23 09:17:22;;;;;;;10.25;7.40;;;25.60;99.90;;;;;;5006298;28;20056;-46
2023/08/23 09:19:49;;;;;;;11.20;7.00;;;25.50;99.90;;;;;;5000170;28;20069;-45
2023/08/23 09:22:21;;;;;;;13.00;6.72;;;25.70;99.90;;;;;;5005417;28;20056;-44
2023/08/23 09:24:49;;;;;;;11.38;7.38;;;25.70;99.90;;;;;;5007398;28;20104;-44
2023/08/23 09:27:16;;;;;;;11.07;7.15;;;25.80;99.90;;;;;;5006824;28;20459;-45
2023/08/23 09:30:04;;;;;;;10.27;6.80;;;25.80;99.90;;;;;;5001784;28;20046;-46
2023/08/23 09:32:31;;;;;;;12.02;7.72;;;26.00;99.90;;;;;;5001955;28;20121;-43
2023/08/23 09:35:13;;;;;;;8.98;6.85;;;26.10;99.90;;;;;;5007915;28;20105;-42
2023/08/23 09:37:49;;;;;;;8.27;6.93;;;26.20;99.90;;;;;;5001569;28;20054;-46
2023/08/23 09:40:22;;;;;;;10.07;6.97;;;26.30;99.90;;;;;;5005623;28;20057;-45
2023/08/23 09:42:51;;;;;;;10.98;6.90;;;26.30;99.90;;;;;;5007535;28;20048;-45
2023/08/23 09:45:22;;;;;;;10.32;7.47;;;26.40;99.90;;;;;;5003970;28;20072;-43
2023/08/23 09:47:55;;;;;;;9.50;7.00;;;26.50;99.90;;;;;;5007352;28;20048;-44
2023/08/23 09:50:25;;;;;;;7.43;6.63;;;26.60;99.90;;;;;;5005699;28;20042;-45
2023/08/23 09:52:54;;;;;;;13.85;7.10;;;26.80;99.90;;;;;;5005790;28;20030;-45
2023/08/23 09:55:22;;;;;;;10.65;6.70;;;27.00;99.90;;;;;;5007788;28;20072;-44
2023/08/23 09:57:54;;;;;;;9.07;7.18;;;26.90;99.90;;;;;;5004837;28;20089;-44
2023/08/23 10:00:22;;;;;;;9.52;7.13;;;26.80;99.90;;;;;;5007248;28;20050;-42
2023/08/23 10:02:53;;;;;;;10.03;7.13;;;26.90;99.90;;;;;;5007600;28;20100;-42
2023/08/23 10:05:21;;;;;;;9.80;7.03;;;27.10;99.90;;;;;;5002780;28;20316;-43
2023/08/23 10:07:55;;;;;;;9.55;7.65;;;27.30;99.90;;;;;;5003790;28;20475;-44
2023/08/23 10:10:24;;;;;;;14.63;11.75;;;27.30;99.90;;;;;;5006417;28;20079;-44
2023/08/23 10:12:55;;;;;;;13.43;7.93;;;27.00;99.90;;;;;;5005935;28;20040;-46
2023/08/23 10:15:29;;;;;;;12.82;7.70;;;27.10;99.90;;;;;;5007677;28;20050;-44
2023/08/23 10:17:59;;;;;;;12.43;7.97;;;27.20;99.90;;;;;;5004342;28;20050;-46
2023/08/23 10:20:27;;;;;;;14.07;8.60;;;27.60;99.90;;;;;;5005275;28;20414;-44
2023/08/23 10:22:57;;;;;;;12.43;7.60;;;27.70;99.90;;;;;;5007818;28;20041;-45
2023/08/23 10:25:25;;;;;;;12.82;7.75;;;28.00;99.90;;;;;;5004828;28;20340;-45
2023/08/23 10:27:54;;;;;;;8.57;7.55;;;28.40;99.90;;;;;;5006789;28;20046;-45
2023/08/23 10:30:26;;;;;;;12.38;8.63;;;28.50;99.90;;;;;;5000897;28;20049;-45
2023/08/23 10:33:06;;;;;;;12.43;8.77;;;28.40;99.90;;;;;;5006112;28;20072;-43
2023/08/23 10:35:35;;;;;;;11.10;7.45;;;28.50;99.90;;;;;;5004300;28;20054;-46
2023/08/23 10:38:07;;;;;;;14.20;7.47;;;28.90;99.90;;;;;;5003346;28;20137;-44
2023/08/23 10:40:36;;;;;;;9.90;7.80;;;28.90;99.90;;;;;;5005699;28;20135;-46
2023/08/23 10:43:18;;;;;;;13.80;7.70;;;29.10;99.90;;;;;;5004392;28;20042;-46
2023/08/23 10:46:02;;;;;;;14.70;8.13;;;29.10;99.90;;;;;;4998200;28;20124;-45
2023/08/23 10:48:31;;;;;;;10.00;7.63;;;29.20;99.90;;;;;;5001982;28;20046;-42
2023/08/23 10:50:58;;;;;;;10.75;8.30;;;29.40;99.90;;;;;;4999254;28;20050;-44
2023/08/23 10:53:26;;;;;;;10.20;7.72;;;29.30;99.90;;;;;;5005406;28;20112;-45
2023/08/23 10:55:55;;;;;;;9.35;7.13;;;29.40;99.90;;;;;;5005794;28;20131;-45
2023/08/23 10:58:23;;;;;;;11.38;7.97;;;29.60;99.90;;;;;;5004711;28;20056;-45
2023/08/23 11:00:53;;;;;;;11.25;8.02;;;29.80;99.90;;;;;;4998783;28;20474;-44
2023/08/23 11:03:21;;;;;;;8.32;7.45;;;29.70;99.90;;;;;;5006194;28;20050;-45
2023/08/23 11:05:49;;;;;;;9.10;8.23;;;29.70;99.90;;;;;;5001301;28;20046;-45
2023/08/23 11:08:16;;;;;;;11.07;7.85;;;29.60;99.90;;;;;;5006838;28;20124;-43
2023/08/23 11:10:44;;;;;;;10.90;8.40;;;29.50;99.90;;;;;;5006677;28;20098;-45
2023/08/23 11:13:11;;;;;;;11.43;8.05;;;30.10;99.90;;;;;;5003505;28;20074;-44
2023/08/23 11:15:41;;;;;;;26.15;9.15;;;30.20;99.90;;;;;;5008786;28;20069;-45
2023/08/23 11:18:10;;;;;;;10.15;8.07;;;30.30;99.90;;;;;;5002601;28;20069;-44
2023/08/23 11:20:38;;;;;;;8.70;7.85;;;30.00;99.90;;;;;;5010246;28;20042;-45
2023/08/23 11:23:07;;;;;;;8.75;7.65;;;30.40;99.90;;;;;;5004760;28;20356;-44
2023/08/23 11:25:35;;;;;;;9.18;8.23;;;30.70;99.90;;;;;;5004219;28;20050;-45
2023/08/23 11:28:05;;;;;;;7.93;7.05;;;31.00;99.90;;;;;;5000033;28;20165;-43
2023/08/23 11:30:33;;;;;;;7.45;6.72;;;31.20;99.90;;;;;;5005463;28;20454;-46
2023/08/23 11:33:00;;;;;;;9.23;7.55;;;31.50;99.90;;;;;;5004994;28;20046;-44
2023/08/23 11:35:28;;;;;;;8.55;7.75;;;31.20;99.90;;;;;;5003903;28;20053;-44
2023/08/23 11:37:57;;;;;;;9.25;7.88;;;31.50;99.90;;;;;;5001485;28;20077;-45
2023/08/23 11:40:24;;;;;;;8.40;7.60;;;32.10;99.90;;;;;;4998820;28;20081;-43
2023/08/23 11:42:58;;;;;;;11.07;7.50;;;32.50;99.90;;;;;;4999517;28;20050;-46
2023/08/23 11:45:48;;;;;;;10.13;8.50;;;32.60;99.90;;;;;;5004211;28;20042;-44
2023/08/23 11:48:15;;;;;;;10.63;8.38;;;32.30;99.90;;;;;;5002115;28;20546;-45
2023/08/23 11:50:44;;;;;;;10.15;8.15;;;32.30;99.90;;;;;;4997584;28;20066;-43
2023/08/23 11:53:12;;;;;;;10.05;8.35;;;32.70;99.90;;;;;;5000315;28;20053;-46
2023/08/23 11:55:40;;;;;;;8.45;7.75;;;33.00;99.90;;;;;;5001301;28;20056;-44
2023/08/23 11:58:09;;;;;;;9.70;8.35;;;32.80;99.90;;;;;;4999366;28;20054;-46
2023/08/23 12:00:38;;;;;;;13.38;7.95;;;32.80;99.90;;;;;;5007966;28;20080;-42
2023/08/23 12:03:06;;;;;;;8.88;8.00;;;33.00;99.90;;;;;;5010675;28;20060;-47
2023/08/23 12:05:36;;;;;;;8.73;7.93;;;32.60;99.90;;;;;;5009334;28;20359;-45
2023/08/23 12:08:03;;;;;;;9.20;8.30;;;32.60;99.90;;;;;;5009914;28;20045;-43
2023/08/23 12:10:31;;;;;;;13.93;8.32;;;33.00;99.90;;;;;;5001727;28;20308;-46
2023/08/23 12:12:59;;;;;;;8.05;7.32;;;33.80;99.90;;;;;;5008401;28;20049;-45
2023/08/23 12:15:26;;;;;;;9.13;8.23;;;34.40;99.90;;;;;;5003238;28;20334;-41
2023/08/23 12:17:54;;;;;;;8.60;7.90;;;34.20;98.10;;;;;;5004279;28;20168;-40
2023/08/23 12:20:22;;;;;;;9.00;7.82;;;34.20;97.80;;;;;;5003499;28;20160;-43
2023/08/23 12:22:50;;;;;;;9.15;7.07;;;34.50;96.20;;;;;;5008546;28;20060;-43
2023/08/23 12:25:18;;;;;;;9.90;7.40;;;34.70;95.90;;;;;;5010725;28;20101;-41
2023/08/23 12:27:45;;;;;;;8.63;7.43;;;34.20;95.50;;;;;;5007938;28;20050;-43
2023/08/23 12:30:13;;;;;;;7.82;7.05;;;34.10;95.60;;;;;;5012204;28;20056;-45
2023/08/23 12:32:41;;;;;;;8.55;7.75;;;34.20;95.60;;;;;;5005731;28;20511;-43
2023/08/23 12:35:08;;;;;;;8.35;7.57;;;33.60;95.40;;;;;;5009787;28;20062;-41
2023/08/23 12:37:36;;;;;;;7.88;7.13;;;34.10;95.40;;;;;;5007958;28;20054;-44
2023/08/23 12:40:08;;;;;;;7.88;7.18;;;34.00;94.40;;;;;;5009110;28;20137;-40
2023/08/23 12:42:36;;;;;;;10.35;7.68;;;34.20;94.60;;;;;;5006733;28;20122;-43